sensor_id;sensor_type;location;lat;lon;timestamp;P1;durP1;ratioP1;P2;durP2;ratioP2
177;SDS011;77;48.792;9.032;2023-07-31T00:00:21;5.80;;;2.77;;
177;SDS011;77;48.792;9.032;2023-07-31T00:02:47;6.60;;;2.97;;
177;SDS011;77;48.792;9.032;2023-07-31T00:05:12;5.60;;;2.73;;
177;SDS011;77;48.792;9.032;2023-07-31T00:07:37;5.53;;;2.70;;
177;SDS011;77;48.792;9.032;2023-07-31T00:10:02;4.70;;;2.50;;
177;SDS011;77;48.792;9.032;2023-07-31T00:12:27;5.50;;;2.90;;
177;SDS011;77;48.792;9.032;2023-07-31T00:14:52;7.27;;;3.00;;
177;SDS011;77;48.792;9.032;2023-07-31T00:17:19;7.43;;;3.10;;
177;SDS011;77;48.792;9.032;2023-07-31T00:19:44;6.30;;;3.10;;
177;SDS011;77;48.792;9.032;2023-07-31T00:22:09;9.03;;;3.10;;
177;SDS011;77;48.792;9.032;2023-07-31T00:24:34;5.77;;;2.80;;
177;SDS011;77;48.792;9.032;2023-07-31T00:27:00;8.80;;;2.90;;
177;SDS011;77;48.792;9.032;2023-07-31T00:29:25;6.10;;;2.90;;
177;SDS011;77;48.792;9.032;2023-07-31T00:31:50;5.30;;;3.00;;
177;SDS011;77;48.792;9.032;2023-07-31T00:34:16;5.93;;;3.17;;
177;SDS011;77;48.792;9.032;2023-07-31T00:36:42;7.63;;;3.20;;
177;SDS011;77;48.792;9.032;2023-07-31T00:39:07;5.97;;;2.87;;
177;SDS011;77;48.792;9.032;2023-07-31T00:41:32;7.10;;;3.10;;
177;SDS011;77;48.792;9.032;2023-07-31T00:43:57;6.10;;;2.90;;
177;SDS011;77;48.792;9.032;2023-07-31T00:46:22;11.40;;;3.20;;
177;SDS011;77;48.792;9.032;2023-07-31T00:48:47;6.40;;;2.90;;
177;SDS011;77;48.792;9.032;2023-07-31T00:51:14;6.90;;;3.20;;
177;SDS011;77;48.792;9.032;2023-07-31T00:53:40;5.70;;;2.80;;
177;SDS011;77;48.792;9.032;2023-07-31T00:56:05;7.27;;;3.03;;
177;SDS011;77;48.792;9.032;2023-07-31T00:58:30;8.90;;;3.37;;
177;SDS011;77;48.792;9.032;2023-07-31T01:00:56;6.87;;;3.00;;
177;SDS011;77;48.792;9.032;2023-07-31T01:03:21;5.93;;;3.13;;
177;SDS011;77;48.792;9.032;2023-07-31T01:05:49;7.60;;;3.10;;
177;SDS011;77;48.792;9.032;2023-07-31T01:08:20;6.40;;;2.90;;
177;SDS011;77;48.792;9.032;2023-07-31T01:10:48;8.90;;;2.80;;
177;SDS011;77;48.792;9.032;2023-07-31T01:13:15;7.23;;;2.90;;
177;SDS011;77;48.792;9.032;2023-07-31T01:15:42;7.50;;;2.83;;
177;SDS011;77;48.792;9.032;2023-07-31T01:18:07;9.43;;;3.40;;
177;SDS011;77;48.792;9.032;2023-07-31T01:20:32;8.93;;;3.03;;
177;SDS011;77;48.792;9.032;2023-07-31T01:23:08;6.57;;;3.07;;
177;SDS011;77;48.792;9.032;2023-07-31T01:25:51;5.60;;;2.90;;
177;SDS011;77;48.792;9.032;2023-07-31T01:28:19;5.43;;;3.00;;
177;SDS011;77;48.792;9.032;2023-07-31T01:30:47;6.67;;;2.80;;
177;SDS011;77;48.792;9.032;2023-07-31T01:33:12;5.00;;;2.90;;
177;SDS011;77;48.792;9.032;2023-07-31T01:35:39;7.40;;;3.30;;
177;SDS011;77;48.792;9.032;2023-07-31T01:38:05;6.37;;;3.10;;
177;SDS011;77;48.792;9.032;2023-07-31T01:40:30;6.60;;;3.27;;
177;SDS011;77;48.792;9.032;2023-07-31T01:42:56;5.30;;;2.77;;
177;SDS011;77;48.792;9.032;2023-07-31T01:45:21;7.17;;;2.97;;
177;SDS011;77;48.792;9.032;2023-07-31T01:47:47;6.50;;;3.30;;
177;SDS011;77;48.792;9.032;2023-07-31T01:50:12;7.90;;;3.40;;
177;SDS011;77;48.792;9.032;2023-07-31T01:52:37;6.13;;;3.00;;
177;SDS011;77;48.792;9.032;2023-07-31T01:55:02;7.60;;;3.60;;
177;SDS011;77;48.792;9.032;2023-07-31T01:57:27;8.97;;;3.37;;
177;SDS011;77;48.792;9.032;2023-07-31T01:59:54;6.30;;;3.00;;
177;SDS011;77;48.792;9.032;2023-07-31T02:02:19;7.60;;;3.33;;
177;SDS011;77;48.792;9.032;2023-07-31T02:04:44;9.07;;;3.30;;
177;SDS011;77;48.792;9.032;2023-07-31T02:07:10;6.00;;;3.20;;
177;SDS011;77;48.792;9.032;2023-07-31T02:09:35;7.63;;;3.13;;
177;SDS011;77;48.792;9.032;2023-07-31T02:12:00;6.00;;;3.20;;
177;SDS011;77;48.792;9.032;2023-07-31T02:14:25;5.27;;;3.00;;
177;SDS011;77;48.792;9.032;2023-07-31T02:16:52;5.90;;;3.07;;
177;SDS011;77;48.792;9.032;2023-07-31T02:19:17;7.27;;;3.03;;
177;SDS011;77;48.792;9.032;2023-07-31T02:21:42;7.27;;;2.93;;
177;SDS011;77;48.792;9.032;2023-07-31T02:24:07;6.67;;;3.23;;
177;SDS011;77;48.792;9.032;2023-07-31T02:26:32;5.50;;;3.07;;
177;SDS011;77;48.792;9.032;2023-07-31T02:28:57;7.43;;;3.20;;
177;SDS011;77;48.792;9.032;2023-07-31T02:31:22;6.20;;;3.23;;
177;SDS011;77;48.792;9.032;2023-07-31T02:33:49;7.70;;;3.30;;
177;SDS011;77;48.792;9.032;2023-07-31T02:36:14;5.93;;;2.83;;
177;SDS011;77;48.792;9.032;2023-07-31T02:38:39;7.77;;;3.50;;
177;SDS011;77;48.792;9.032;2023-07-31T02:41:05;5.80;;;3.07;;
177;SDS011;77;48.792;9.032;2023-07-31T02:43:30;5.90;;;3.20;;
177;SDS011;77;48.792;9.032;2023-07-31T02:45:56;6.87;;;3.10;;
177;SDS011;77;48.792;9.032;2023-07-31T02:48:22;10.30;;;3.27;;
177;SDS011;77;48.792;9.032;2023-07-31T02:50:48;6.30;;;3.33;;
177;SDS011;77;48.792;9.032;2023-07-31T02:53:13;10.30;;;5.00;;
177;SDS011;77;48.792;9.032;2023-07-31T02:55:39;9.30;;;4.73;;
177;SDS011;77;48.792;9.032;2023-07-31T02:58:04;7.60;;;4.00;;
177;SDS011;77;48.792;9.032;2023-07-31T03:00:29;7.47;;;3.30;;
177;SDS011;77;48.792;9.032;2023-07-31T03:02:54;7.57;;;3.20;;
177;SDS011;77;48.792;9.032;2023-07-31T03:05:19;6.43;;;3.10;;
177;SDS011;77;48.792;9.032;2023-07-31T03:07:46;5.00;;;3.00;;
177;SDS011;77;48.792;9.032;2023-07-31T03:10:11;7.23;;;3.10;;
177;SDS011;77;48.792;9.032;2023-07-31T03:12:36;5.23;;;2.93;;
177;SDS011;77;48.792;9.032;2023-07-31T03:15:02;8.20;;;3.23;;
177;SDS011;77;48.792;9.032;2023-07-31T03:17:27;7.40;;;3.30;;
177;SDS011;77;48.792;9.032;2023-07-31T03:19:52;6.60;;;3.10;;
177;SDS011;77;48.792;9.032;2023-07-31T03:22:17;9.00;;;3.40;;
177;SDS011;77;48.792;9.032;2023-07-31T03:24:44;5.77;;;2.97;;
177;SDS011;77;48.792;9.032;2023-07-31T03:27:09;6.30;;;3.27;;
177;SDS011;77;48.792;9.032;2023-07-31T03:29:34;7.90;;;3.37;;
177;SDS011;77;48.792;9.032;2023-07-31T03:31:59;7.37;;;3.40;;
177;SDS011;77;48.792;9.032;2023-07-31T03:34:24;9.53;;;3.50;;
177;SDS011;77;48.792;9.032;2023-07-31T03:36:49;6.93;;;3.30;;
177;SDS011;77;48.792;9.032;2023-07-31T03:39:15;6.67;;;3.10;;
177;SDS011;77;48.792;9.032;2023-07-31T03:41:41;6.47;;;3.53;;
177;SDS011;77;48.792;9.032;2023-07-31T03:44:06;6.63;;;3.30;;
177;SDS011;77;48.792;9.032;2023-07-31T03:46:31;6.60;;;3.27;;
177;SDS011;77;48.792;9.032;2023-07-31T03:48:57;6.03;;;3.30;;
177;SDS011;77;48.792;9.032;2023-07-31T03:51:22;8.07;;;3.33;;
177;SDS011;77;48.792;9.032;2023-07-31T03:53:47;6.63;;;3.23;;
177;SDS011;77;48.792;9.032;2023-07-31T03:56:12;7.43;;;3.37;;
177;SDS011;77;48.792;9.032;2023-07-31T03:58:39;9.53;;;3.60;;
177;SDS011;77;48.792;9.032;2023-07-31T04:01:04;7.10;;;3.23;;
177;SDS011;77;48.792;9.032;2023-07-31T04:03:29;9.10;;;3.60;;
177;SDS011;77;48.792;9.032;2023-07-31T04:05:54;9.27;;;3.60;;
177;SDS011;77;48.792;9.032;2023-07-31T04:08:20;5.87;;;3.17;;
177;SDS011;77;48.792;9.032;2023-07-31T04:10:45;5.50;;;3.20;;
177;SDS011;77;48.792;9.032;2023-07-31T04:13:10;6.23;;;3.10;;
177;SDS011;77;48.792;9.032;2023-07-31T04:15:37;6.50;;;3.47;;
177;SDS011;77;48.792;9.032;2023-07-31T04:18:02;8.57;;;3.30;;
177;SDS011;77;48.792;9.032;2023-07-31T04:20:27;6.40;;;3.07;;
177;SDS011;77;48.792;9.032;2023-07-31T04:22:52;9.70;;;3.43;;
177;SDS011;77;48.792;9.032;2023-07-31T04:25:17;6.33;;;3.10;;
177;SDS011;77;48.792;9.032;2023-07-31T04:27:43;5.90;;;3.10;;
177;SDS011;77;48.792;9.032;2023-07-31T04:30:08;5.77;;;3.30;;
177;SDS011;77;48.792;9.032;2023-07-31T04:32:35;7.30;;;3.13;;
177;SDS011;77;48.792;9.032;2023-07-31T04:35:00;7.80;;;3.30;;
177;SDS011;77;48.792;9.032;2023-07-31T04:37:25;6.10;;;3.30;;
177;SDS011;77;48.792;9.032;2023-07-31T04:39:50;7.90;;;3.50;;
177;SDS011;77;48.792;9.032;2023-07-31T04:42:15;9.13;;;3.40;;
177;SDS011;77;48.792;9.032;2023-07-31T04:44:41;6.57;;;3.53;;
177;SDS011;77;48.792;9.032;2023-07-31T04:47:06;7.50;;;3.50;;
177;SDS011;77;48.792;9.032;2023-07-31T04:49:32;7.63;;;3.60;;
177;SDS011;77;48.792;9.032;2023-07-31T04:51:57;7.83;;;3.50;;
177;SDS011;77;48.792;9.032;2023-07-31T04:54:23;10.10;;;3.73;;
177;SDS011;77;48.792;9.032;2023-07-31T04:56:48;8.50;;;3.33;;
177;SDS011;77;48.792;9.032;2023-07-31T04:59:13;5.93;;;3.00;;
177;SDS011;77;48.792;9.032;2023-07-31T05:01:38;6.23;;;3.40;;
177;SDS011;77;48.792;9.032;2023-07-31T05:04:03;6.70;;;3.00;;
177;SDS011;77;48.792;9.032;2023-07-31T05:06:30;6.57;;;3.23;;
177;SDS011;77;48.792;9.032;2023-07-31T05:08:55;5.83;;;3.07;;
177;SDS011;77;48.792;9.032;2023-07-31T05:11:20;7.30;;;3.17;;
177;SDS011;77;48.792;9.032;2023-07-31T05:13:45;8.30;;;3.53;;
177;SDS011;77;48.792;9.032;2023-07-31T05:16:10;11.30;;;3.30;;
177;SDS011;77;48.792;9.032;2023-07-31T05:18:35;7.07;;;3.00;;
177;SDS011;77;48.792;9.032;2023-07-31T05:21:01;7.70;;;3.37;;
177;SDS011;77;48.792;9.032;2023-07-31T05:23:27;6.43;;;3.00;;
177;SDS011;77;48.792;9.032;2023-07-31T05:25:52;9.00;;;3.90;;
177;SDS011;77;48.792;9.032;2023-07-31T05:28:17;5.30;;;3.20;;
177;SDS011;77;48.792;9.032;2023-07-31T05:30:43;9.27;;;3.40;;
177;SDS011;77;48.792;9.032;2023-07-31T05:33:08;11.60;;;3.20;;
177;SDS011;77;48.792;9.032;2023-07-31T05:35:33;8.93;;;3.50;;
177;SDS011;77;48.792;9.032;2023-07-31T05:37:58;7.60;;;3.23;;
177;SDS011;77;48.792;9.032;2023-07-31T05:40:25;7.67;;;3.40;;
177;SDS011;77;48.792;9.032;2023-07-31T05:42:50;6.93;;;3.30;;
177;SDS011;77;48.792;9.032;2023-07-31T05:45:15;8.10;;;3.20;;
177;SDS011;77;48.792;9.032;2023-07-31T05:47:40;7.33;;;3.40;;
177;SDS011;77;48.792;9.032;2023-07-31T05:50:05;5.60;;;3.40;;
177;SDS011;77;48.792;9.032;2023-07-31T05:52:31;6.70;;;3.30;;
177;SDS011;77;48.792;9.032;2023-07-31T05:54:56;7.00;;;3.40;;
177;SDS011;77;48.792;9.032;2023-07-31T05:57:22;8.13;;;3.73;;
177;SDS011;77;48.792;9.032;2023-07-31T05:59:48;7.13;;;3.30;;
177;SDS011;77;48.792;9.032;2023-07-31T06:02:13;7.20;;;3.30;;
177;SDS011;77;48.792;9.032;2023-07-31T06:04:38;8.43;;;3.67;;
177;SDS011;77;48.792;9.032;2023-07-31T06:07:03;7.00;;;3.37;;
177;SDS011;77;48.792;9.032;2023-07-31T06:09:28;6.80;;;3.33;;
177;SDS011;77;48.792;9.032;2023-07-31T06:11:54;6.70;;;3.50;;
177;SDS011;77;48.792;9.032;2023-07-31T06:14:20;9.33;;;3.47;;
177;SDS011;77;48.792;9.032;2023-07-31T06:16:45;7.53;;;3.10;;
177;SDS011;77;48.792;9.032;2023-07-31T06:19:10;12.53;;;3.73;;
177;SDS011;77;48.792;9.032;2023-07-31T06:21:36;9.50;;;3.47;;
177;SDS011;77;48.792;9.032;2023-07-31T06:24:01;7.50;;;3.17;;
177;SDS011;77;48.792;9.032;2023-07-31T06:26:26;5.63;;;3.50;;
177;SDS011;77;48.792;9.032;2023-07-31T06:28:51;7.50;;;3.50;;
177;SDS011;77;48.792;9.032;2023-07-31T06:31:18;9.13;;;3.40;;
177;SDS011;77;48.792;9.032;2023-07-31T06:33:43;8.10;;;3.10;;
177;SDS011;77;48.792;9.032;2023-07-31T06:36:08;7.83;;;3.03;;
177;SDS011;77;48.792;9.032;2023-07-31T06:38:33;6.30;;;3.10;;
177;SDS011;77;48.792;9.032;2023-07-31T06:40:59;8.47;;;3.70;;
177;SDS011;77;48.792;9.032;2023-07-31T06:43:24;7.33;;;3.27;;
177;SDS011;77;48.792;9.032;2023-07-31T06:45:49;8.50;;;3.33;;
177;SDS011;77;48.792;9.032;2023-07-31T06:48:15;7.10;;;3.60;;
177;SDS011;77;48.792;9.032;2023-07-31T06:50:41;6.77;;;3.33;;
177;SDS011;77;48.792;9.032;2023-07-31T06:53:06;9.03;;;3.60;;
177;SDS011;77;48.792;9.032;2023-07-31T06:55:31;8.23;;;3.43;;
177;SDS011;77;48.792;9.032;2023-07-31T06:57:56;8.00;;;3.40;;
177;SDS011;77;48.792;9.032;2023-07-31T07:00:22;10.00;;;3.60;;
177;SDS011;77;48.792;9.032;2023-07-31T07:02:47;7.40;;;3.40;;
177;SDS011;77;48.792;9.032;2023-07-31T07:05:14;12.33;;;3.30;;
177;SDS011;77;48.792;9.032;2023-07-31T07:07:40;7.50;;;3.63;;
177;SDS011;77;48.792;9.032;2023-07-31T07:10:05;7.20;;;3.50;;
177;SDS011;77;48.792;9.032;2023-07-31T07:12:31;7.70;;;3.47;;
177;SDS011;77;48.792;9.032;2023-07-31T07:14:57;7.80;;;3.53;;
177;SDS011;77;48.792;9.032;2023-07-31T07:17:22;9.60;;;3.53;;
177;SDS011;77;48.792;9.032;2023-07-31T07:19:47;7.70;;;3.33;;
177;SDS011;77;48.792;9.032;2023-07-31T07:22:14;7.70;;;3.50;;
177;SDS011;77;48.792;9.032;2023-07-31T07:24:39;7.80;;;3.60;;
177;SDS011;77;48.792;9.032;2023-07-31T07:27:05;8.03;;;3.20;;
177;SDS011;77;48.792;9.032;2023-07-31T07:29:30;7.73;;;3.33;;
177;SDS011;77;48.792;9.032;2023-07-31T07:31:55;8.07;;;3.50;;
177;SDS011;77;48.792;9.032;2023-07-31T07:34:22;6.83;;;3.37;;
177;SDS011;77;48.792;9.032;2023-07-31T07:36:47;7.63;;;3.23;;
177;SDS011;77;48.792;9.032;2023-07-31T07:39:13;6.43;;;3.20;;
177;SDS011;77;48.792;9.032;2023-07-31T07:41:39;9.97;;;3.30;;
177;SDS011;77;48.792;9.032;2023-07-31T07:44:04;9.23;;;3.33;;
177;SDS011;77;48.792;9.032;2023-07-31T07:46:29;7.37;;;3.57;;
177;SDS011;77;48.792;9.032;2023-07-31T07:48:54;9.10;;;3.80;;
177;SDS011;77;48.792;9.032;2023-07-31T07:51:19;10.00;;;3.23;;
177;SDS011;77;48.792;9.032;2023-07-31T07:53:44;9.90;;;3.60;;
177;SDS011;77;48.792;9.032;2023-07-31T07:56:11;8.20;;;3.20;;
177;SDS011;77;48.792;9.032;2023-07-31T07:58:36;7.43;;;3.27;;
177;SDS011;77;48.792;9.032;2023-07-31T08:01:01;5.93;;;3.13;;
177;SDS011;77;48.792;9.032;2023-07-31T08:03:26;9.40;;;3.40;;
177;SDS011;77;48.792;9.032;2023-07-31T08:05:52;7.33;;;3.50;;
177;SDS011;77;48.792;9.032;2023-07-31T08:08:17;9.20;;;3.57;;
177;SDS011;77;48.792;9.032;2023-07-31T08:10:42;6.90;;;3.37;;
177;SDS011;77;48.792;9.032;2023-07-31T08:13:09;7.80;;;3.17;;
177;SDS011;77;48.792;9.032;2023-07-31T08:15:34;6.90;;;3.60;;
177;SDS011;77;48.792;9.032;2023-07-31T08:17:59;8.07;;;3.47;;
177;SDS011;77;48.792;9.032;2023-07-31T08:20:24;10.20;;;3.70;;
177;SDS011;77;48.792;9.032;2023-07-31T08:22:51;9.80;;;3.60;;
177;SDS011;77;48.792;9.032;2023-07-31T08:25:16;8.63;;;3.50;;
177;SDS011;77;48.792;9.032;2023-07-31T08:27:42;9.00;;;3.57;;
177;SDS011;77;48.792;9.032;2023-07-31T08:30:09;8.43;;;3.40;;
177;SDS011;77;48.792;9.032;2023-07-31T08:32:35;8.33;;;3.20;;
177;SDS011;77;48.792;9.032;2023-07-31T08:35:00;10.53;;;4.07;;
177;SDS011;77;48.792;9.032;2023-07-31T08:37:25;9.43;;;3.90;;
177;SDS011;77;48.792;9.032;2023-07-31T08:39:50;9.43;;;3.93;;
177;SDS011;77;48.792;9.032;2023-07-31T08:42:15;7.80;;;3.50;;
177;SDS011;77;48.792;9.032;2023-07-31T08:44:41;9.80;;;3.87;;
177;SDS011;77;48.792;9.032;2023-07-31T08:47:07;11.97;;;4.10;;
177;SDS011;77;48.792;9.032;2023-07-31T08:49:32;8.00;;;3.40;;
177;SDS011;77;48.792;9.032;2023-07-31T08:51:58;9.47;;;3.70;;
177;SDS011;77;48.792;9.032;2023-07-31T08:54:24;10.30;;;3.83;;
177;SDS011;77;48.792;9.032;2023-07-31T08:56:49;9.83;;;3.70;;
177;SDS011;77;48.792;9.032;2023-07-31T08:59:14;10.00;;;3.50;;
177;SDS011;77;48.792;9.032;2023-07-31T09:01:42;7.27;;;3.60;;
177;SDS011;77;48.792;9.032;2023-07-31T09:04:09;8.30;;;3.97;;
177;SDS011;77;48.792;9.032;2023-07-31T09:06:36;6.70;;;3.27;;
177;SDS011;77;48.792;9.032;2023-07-31T09:09:01;8.30;;;3.33;;
177;SDS011;77;48.792;9.032;2023-07-31T09:11:27;7.17;;;3.67;;
177;SDS011;77;48.792;9.032;2023-07-31T09:13:52;8.27;;;4.17;;
177;SDS011;77;48.792;9.032;2023-07-31T09:16:18;7.30;;;3.80;;
177;SDS011;77;48.792;9.032;2023-07-31T09:18:52;9.37;;;3.50;;
177;SDS011;77;48.792;9.032;2023-07-31T09:21:19;8.73;;;3.70;;
177;SDS011;77;48.792;9.032;2023-07-31T09:23:45;9.60;;;3.37;;
177;SDS011;77;48.792;9.032;2023-07-31T09:26:10;8.20;;;3.33;;
177;SDS011;77;48.792;9.032;2023-07-31T09:28:36;9.23;;;3.60;;
177;SDS011;77;48.792;9.032;2023-07-31T09:31:01;7.60;;;3.53;;
177;SDS011;77;48.792;9.032;2023-07-31T09:33:26;7.57;;;3.33;;
177;SDS011;77;48.792;9.032;2023-07-31T09:35:51;7.20;;;3.50;;
177;SDS011;77;48.792;9.032;2023-07-31T09:38:18;8.10;;;3.47;;
177;SDS011;77;48.792;9.032;2023-07-31T09:40:44;8.20;;;3.73;;
177;SDS011;77;48.792;9.032;2023-07-31T09:43:10;9.13;;;3.70;;
177;SDS011;77;48.792;9.032;2023-07-31T09:45:35;13.00;;;3.70;;
177;SDS011;77;48.792;9.032;2023-07-31T09:48:01;9.80;;;3.10;;
177;SDS011;77;48.792;9.032;2023-07-31T09:50:26;9.63;;;3.80;;
177;SDS011;77;48.792;9.032;2023-07-31T09:52:51;7.50;;;3.43;;
177;SDS011;77;48.792;9.032;2023-07-31T09:55:18;11.00;;;3.70;;
177;SDS011;77;48.792;9.032;2023-07-31T09:57:44;10.43;;;3.73;;
177;SDS011;77;48.792;9.032;2023-07-31T10:00:10;9.57;;;3.63;;
177;SDS011;77;48.792;9.032;2023-07-31T10:02:35;6.33;;;3.20;;
177;SDS011;77;48.792;9.032;2023-07-31T10:05:02;10.90;;;3.37;;
177;SDS011;77;48.792;9.032;2023-07-31T10:07:27;8.30;;;3.47;;
177;SDS011;77;48.792;9.032;2023-07-31T10:09:54;8.10;;;3.53;;
177;SDS011;77;48.792;9.032;2023-07-31T10:12:21;8.10;;;3.60;;
177;SDS011;77;48.792;9.032;2023-07-31T10:14:47;8.53;;;3.57;;
177;SDS011;77;48.792;9.032;2023-07-31T10:17:12;9.83;;;3.70;;
177;SDS011;77;48.792;9.032;2023-07-31T10:19:38;13.03;;;3.90;;
177;SDS011;77;48.792;9.032;2023-07-31T10:22:04;7.30;;;3.30;;
177;SDS011;77;48.792;9.032;2023-07-31T10:24:29;9.50;;;3.90;;
177;SDS011;77;48.792;9.032;2023-07-31T10:26:55;7.93;;;4.03;;
177;SDS011;77;48.792;9.032;2023-07-31T10:29:23;8.77;;;3.70;;
177;SDS011;77;48.792;9.032;2023-07-31T10:31:49;10.17;;;3.67;;
177;SDS011;77;48.792;9.032;2023-07-31T10:34:15;8.97;;;3.50;;
177;SDS011;77;48.792;9.032;2023-07-31T10:36:41;6.50;;;3.37;;
177;SDS011;77;48.792;9.032;2023-07-31T10:39:06;7.03;;;3.27;;
177;SDS011;77;48.792;9.032;2023-07-31T10:41:52;7.50;;;3.60;;
177;SDS011;77;48.792;9.032;2023-07-31T10:44:18;9.63;;;3.70;;
177;SDS011;77;48.792;9.032;2023-07-31T10:46:45;9.53;;;3.80;;
177;SDS011;77;48.792;9.032;2023-07-31T10:49:10;8.87;;;3.53;;
177;SDS011;77;48.792;9.032;2023-07-31T10:51:45;8.40;;;3.63;;
177;SDS011;77;48.792;9.032;2023-07-31T10:54:12;6.90;;;3.40;;
177;SDS011;77;48.792;9.032;2023-07-31T10:56:38;9.60;;;3.70;;
177;SDS011;77;48.792;9.032;2023-07-31T10:59:04;7.47;;;3.60;;
177;SDS011;77;48.792;9.032;2023-07-31T11:04:10;8.63;;;3.77;;
177;SDS011;77;48.792;9.032;2023-07-31T11:06:35;9.47;;;3.50;;
177;SDS011;77;48.792;9.032;2023-07-31T11:09:01;7.20;;;3.70;;
177;SDS011;77;48.792;9.032;2023-07-31T11:11:26;7.33;;;4.13;;
177;SDS011;77;48.792;9.032;2023-07-31T11:13:52;7.37;;;3.73;;
177;SDS011;77;48.792;9.032;2023-07-31T11:16:19;9.70;;;3.70;;
177;SDS011;77;48.792;9.032;2023-07-31T11:18:45;7.87;;;3.60;;
177;SDS011;77;48.792;9.032;2023-07-31T11:21:11;8.17;;;3.57;;
177;SDS011;77;48.792;9.032;2023-07-31T11:23:37;9.17;;;3.90;;
177;SDS011;77;48.792;9.032;2023-07-31T11:26:02;6.43;;;3.57;;
177;SDS011;77;48.792;9.032;2023-07-31T11:28:31;7.90;;;3.97;;
177;SDS011;77;48.792;9.032;2023-07-31T11:30:56;8.20;;;3.63;;
177;SDS011;77;48.792;9.032;2023-07-31T11:33:23;8.10;;;3.90;;
177;SDS011;77;48.792;9.032;2023-07-31T11:35:48;8.70;;;3.33;;
177;SDS011;77;48.792;9.032;2023-07-31T11:38:20;8.57;;;3.73;;
177;SDS011;77;48.792;9.032;2023-07-31T11:40:45;7.50;;;3.67;;
177;SDS011;77;48.792;9.032;2023-07-31T11:43:11;8.13;;;3.70;;
177;SDS011;77;48.792;9.032;2023-07-31T11:45:36;8.50;;;3.90;;
177;SDS011;77;48.792;9.032;2023-07-31T11:48:01;7.63;;;3.97;;
177;SDS011;77;48.792;9.032;2023-07-31T11:50:27;9.30;;;3.93;;
177;SDS011;77;48.792;9.032;2023-07-31T11:52:54;7.70;;;3.67;;
177;SDS011;77;48.792;9.032;2023-07-31T11:55:20;10.30;;;4.10;;
177;SDS011;77;48.792;9.032;2023-07-31T11:57:45;11.43;;;4.17;;
177;SDS011;77;48.792;9.032;2023-07-31T12:00:11;9.43;;;4.03;;
177;SDS011;77;48.792;9.032;2023-07-31T12:02:37;8.77;;;4.13;;
177;SDS011;77;48.792;9.032;2023-07-31T12:05:02;8.43;;;3.80;;
177;SDS011;77;48.792;9.032;2023-07-31T12:07:29;10.07;;;3.70;;
177;SDS011;77;48.792;9.032;2023-07-31T12:10:07;8.73;;;3.70;;
177;SDS011;77;48.792;9.032;2023-07-31T12:12:32;8.60;;;3.90;;
177;SDS011;77;48.792;9.032;2023-07-31T12:14:58;10.20;;;3.80;;
177;SDS011;77;48.792;9.032;2023-07-31T12:17:23;6.17;;;3.80;;
177;SDS011;77;48.792;9.032;2023-07-31T12:19:49;11.00;;;4.30;;
177;SDS011;77;48.792;9.032;2023-07-31T12:22:15;8.03;;;3.90;;
177;SDS011;77;48.792;9.032;2023-07-31T12:24:42;6.40;;;3.90;;
177;SDS011;77;48.792;9.032;2023-07-31T12:27:08;10.30;;;3.80;;
177;SDS011;77;48.792;9.032;2023-07-31T12:29:34;11.10;;;4.03;;
177;SDS011;77;48.792;9.032;2023-07-31T12:31:59;11.40;;;3.93;;
177;SDS011;77;48.792;9.032;2023-07-31T12:34:24;9.33;;;4.20;;
177;SDS011;77;48.792;9.032;2023-07-31T12:36:49;7.47;;;4.00;;
177;SDS011;77;48.792;9.032;2023-07-31T12:39:14;7.53;;;3.83;;
177;SDS011;77;48.792;9.032;2023-07-31T12:41:41;8.17;;;4.00;;
177;SDS011;77;48.792;9.032;2023-07-31T12:44:06;9.20;;;4.00;;
177;SDS011;77;48.792;9.032;2023-07-31T12:46:31;9.53;;;4.30;;
177;SDS011;77;48.792;9.032;2023-07-31T12:48:56;8.37;;;4.10;;
177;SDS011;77;48.792;9.032;2023-07-31T12:51:21;8.33;;;4.30;;
177;SDS011;77;48.792;9.032;2023-07-31T12:53:47;6.13;;;3.60;;
177;SDS011;77;48.792;9.032;2023-07-31T12:56:12;8.33;;;3.57;;
177;SDS011;77;48.792;9.032;2023-07-31T12:58:38;7.70;;;3.80;;
177;SDS011;77;48.792;9.032;2023-07-31T13:01:04;9.30;;;3.57;;
177;SDS011;77;48.792;9.032;2023-07-31T13:03:29;7.40;;;3.70;;
177;SDS011;77;48.792;9.032;2023-07-31T13:05:54;7.57;;;3.83;;
177;SDS011;77;48.792;9.032;2023-07-31T13:08:19;6.80;;;3.50;;
177;SDS011;77;48.792;9.032;2023-07-31T13:10:44;8.60;;;3.60;;
177;SDS011;77;48.792;9.032;2023-07-31T13:13:10;7.87;;;3.53;;
177;SDS011;77;48.792;9.032;2023-07-31T13:15:36;6.50;;;3.40;;
177;SDS011;77;48.792;9.032;2023-07-31T13:18:01;7.10;;;3.60;;
177;SDS011;77;48.792;9.032;2023-07-31T13:20:26;5.40;;;3.43;;
177;SDS011;77;48.792;9.032;2023-07-31T13:22:52;6.17;;;3.33;;
177;SDS011;77;48.792;9.032;2023-07-31T13:25:17;7.43;;;3.40;;
177;SDS011;77;48.792;9.032;2023-07-31T13:27:42;7.17;;;3.73;;
177;SDS011;77;48.792;9.032;2023-07-31T13:30:07;7.80;;;3.80;;
177;SDS011;77;48.792;9.032;2023-07-31T13:32:34;7.57;;;3.90;;
177;SDS011;77;48.792;9.032;2023-07-31T13:34:59;6.23;;;3.50;;
177;SDS011;77;48.792;9.032;2023-07-31T13:37:24;6.93;;;3.77;;
177;SDS011;77;48.792;9.032;2023-07-31T13:39:50;6.00;;;3.40;;
177;SDS011;77;48.792;9.032;2023-07-31T13:42:15;6.50;;;3.63;;
177;SDS011;77;48.792;9.032;2023-07-31T13:44:40;7.17;;;4.13;;
177;SDS011;77;48.792;9.032;2023-07-31T13:47:05;7.67;;;3.90;;
177;SDS011;77;48.792;9.032;2023-07-31T13:49:32;8.87;;;3.60;;
177;SDS011;77;48.792;9.032;2023-07-31T13:51:57;7.37;;;3.60;;
177;SDS011;77;48.792;9.032;2023-07-31T13:54:23;7.83;;;4.00;;
177;SDS011;77;48.792;9.032;2023-07-31T13:56:48;6.57;;;3.80;;
177;SDS011;77;48.792;9.032;2023-07-31T13:59:13;9.63;;;4.17;;
177;SDS011;77;48.792;9.032;2023-07-31T14:01:38;7.47;;;3.97;;
177;SDS011;77;48.792;9.032;2023-07-31T14:04:03;7.83;;;3.67;;
177;SDS011;77;48.792;9.032;2023-07-31T14:06:30;6.17;;;3.30;;
177;SDS011;77;48.792;9.032;2023-07-31T14:08:55;8.93;;;3.97;;
177;SDS011;77;48.792;9.032;2023-07-31T14:11:20;7.33;;;3.57;;
177;SDS011;77;48.792;9.032;2023-07-31T14:13:45;14.23;;;3.80;;
177;SDS011;77;48.792;9.032;2023-07-31T14:16:11;7.37;;;3.90;;
177;SDS011;77;48.792;9.032;2023-07-31T14:18:36;6.90;;;3.90;;
177;SDS011;77;48.792;9.032;2023-07-31T14:21:01;10.97;;;3.83;;
177;SDS011;77;48.792;9.032;2023-07-31T14:23:27;7.13;;;3.83;;
177;SDS011;77;48.792;9.032;2023-07-31T14:25:53;6.43;;;3.77;;
177;SDS011;77;48.792;9.032;2023-07-31T14:28:18;5.53;;;3.40;;
177;SDS011;77;48.792;9.032;2023-07-31T14:30:43;8.10;;;4.07;;
177;SDS011;77;48.792;9.032;2023-07-31T14:33:08;8.23;;;3.50;;
177;SDS011;77;48.792;9.032;2023-07-31T14:35:33;6.90;;;3.87;;
177;SDS011;77;48.792;9.032;2023-07-31T14:37:58;7.43;;;3.80;;
177;SDS011;77;48.792;9.032;2023-07-31T14:40:25;7.30;;;3.97;;
177;SDS011;77;48.792;9.032;2023-07-31T14:42:50;8.23;;;3.60;;
177;SDS011;77;48.792;9.032;2023-07-31T14:45:15;7.10;;;3.57;;
177;SDS011;77;48.792;9.032;2023-07-31T14:47:40;6.30;;;3.57;;
177;SDS011;77;48.792;9.032;2023-07-31T14:50:06;6.50;;;3.73;;
177;SDS011;77;48.792;9.032;2023-07-31T14:52:31;7.03;;;3.73;;
177;SDS011;77;48.792;9.032;2023-07-31T14:54:57;7.00;;;3.77;;
177;SDS011;77;48.792;9.032;2023-07-31T14:57:23;7.17;;;3.50;;
177;SDS011;77;48.792;9.032;2023-07-31T14:59:48;7.70;;;3.80;;
177;SDS011;77;48.792;9.032;2023-07-31T15:02:14;9.00;;;3.93;;
177;SDS011;77;48.792;9.032;2023-07-31T15:04:39;7.23;;;3.87;;
177;SDS011;77;48.792;9.032;2023-07-31T15:07:05;7.37;;;3.80;;
177;SDS011;77;48.792;9.032;2023-07-31T15:09:30;7.57;;;3.57;;
177;SDS011;77;48.792;9.032;2023-07-31T15:11:55;9.97;;;3.60;;
177;SDS011;77;48.792;9.032;2023-07-31T15:14:22;6.67;;;3.17;;
177;SDS011;77;48.792;9.032;2023-07-31T15:16:47;5.90;;;3.17;;
177;SDS011;77;48.792;9.032;2023-07-31T15:19:12;7.20;;;3.70;;
177;SDS011;77;48.792;9.032;2023-07-31T15:21:37;6.50;;;3.57;;
177;SDS011;77;48.792;9.032;2023-07-31T15:24:03;7.63;;;3.53;;
177;SDS011;77;48.792;9.032;2023-07-31T15:26:28;11.73;;;3.83;;
177;SDS011;77;48.792;9.032;2023-07-31T15:28:55;8.17;;;3.90;;
177;SDS011;77;48.792;9.032;2023-07-31T15:31:22;6.83;;;3.53;;
177;SDS011;77;48.792;9.032;2023-07-31T15:33:47;6.13;;;3.40;;
177;SDS011;77;48.792;9.032;2023-07-31T15:36:12;6.80;;;3.40;;
177;SDS011;77;48.792;9.032;2023-07-31T15:38:37;8.80;;;3.73;;
177;SDS011;77;48.792;9.032;2023-07-31T15:41:03;6.50;;;3.70;;
177;SDS011;77;48.792;9.032;2023-07-31T15:43:28;7.47;;;3.57;;
177;SDS011;77;48.792;9.032;2023-07-31T15:45:53;7.40;;;3.80;;
177;SDS011;77;48.792;9.032;2023-07-31T15:48:19;7.17;;;3.73;;
177;SDS011;77;48.792;9.032;2023-07-31T15:50:44;7.97;;;3.90;;